sensor_id;sensor_type;location;lat;lon;timestamp;P1;durP1;ratioP1;P2;durP2;ratioP2
22579;SDS011;11456;47.030;15.396;2022-07-18T00:00:19;4.65;;;2.90;;
22579;SDS011;11456;47.030;15.396;2022-07-18T00:02:45;4.57;;;3.08;;
22579;SDS011;11456;47.030;15.396;2022-07-18T00:05:12;3.25;;;2.88;;
22579;SDS011;11456;47.030;15.396;2022-07-18T00:07:39;5.72;;;3.08;;
22579;SDS011;11456;47.030;15.396;2022-07-18T00:10:05;6.95;;;3.00;;
22579;SDS011;11456;47.030;15.396;2022-07-18T00:12:32;7.65;;;3.13;;
22579;SDS011;11456;47.030;15.396;2022-07-18T00:14:59;5.35;;;3.20;;
22579;SDS011;11456;47.030;15.396;2022-07-18T00:17:26;8.43;;;3.25;;
22579;SDS011;11456;47.030;15.396;2022-07-18T00:19:53;5.82;;;3.28;;
22579;SDS011;11456;47.030;15.396;2022-07-18T00:22:19;4.15;;;2.92;;
22579;SDS011;11456;47.030;15.396;2022-07-18T00:24:46;5.45;;;3.33;;
22579;SDS011;11456;47.030;15.396;2022-07-18T00:27:13;4.90;;;3.13;;
22579;SDS011;11456;47.030;15.396;2022-07-18T00:29:39;12.73;;;3.10;;
22579;SDS011;11456;47.030;15.396;2022-07-18T00:32:07;4.22;;;2.80;;
22579;SDS011;11456;47.030;15.396;2022-07-18T00:34:34;5.80;;;2.78;;
22579;SDS011;11456;47.030;15.396;2022-07-18T00:37:02;6.32;;;3.72;;
22579;SDS011;11456;47.030;15.396;2022-07-18T00:39:29;6.35;;;3.03;;
22579;SDS011;11456;47.030;15.396;2022-07-18T00:41:56;5.78;;;3.05;;
22579;SDS011;11456;47.030;15.396;2022-07-18T00:44:23;6.15;;;3.50;;
22579;SDS011;11456;47.030;15.396;2022-07-18T00:46:52;6.22;;;3.42;;
22579;SDS011;11456;47.030;15.396;2022-07-18T00:49:20;5.15;;;3.70;;
22579;SDS011;11456;47.030;15.396;2022-07-18T00:51:47;7.18;;;3.58;;
22579;SDS011;11456;47.030;15.396;2022-07-18T00:54:14;5.93;;;3.50;;
22579;SDS011;11456;47.030;15.396;2022-07-18T00:56:43;7.13;;;3.03;;
22579;SDS011;11456;47.030;15.396;2022-07-18T00:59:11;5.90;;;3.25;;
22579;SDS011;11456;47.030;15.396;2022-07-18T01:01:38;5.63;;;2.88;;
22579;SDS011;11456;47.030;15.396;2022-07-18T01:06:49;6.72;;;3.15;;
22579;SDS011;11456;47.030;15.396;2022-07-18T01:09:17;8.90;;;3.40;;
22579;SDS011;11456;47.030;15.396;2022-07-18T01:11:46;6.68;;;3.38;;
22579;SDS011;11456;47.030;15.396;2022-07-18T01:14:13;3.78;;;2.80;;
22579;SDS011;11456;47.030;15.396;2022-07-18T01:16:41;4.43;;;3.05;;
22579;SDS011;11456;47.030;15.396;2022-07-18T01:19:09;5.85;;;3.53;;
22579;SDS011;11456;47.030;15.396;2022-07-18T01:21:36;5.65;;;3.20;;
22579;SDS011;11456;47.030;15.396;2022-07-18T01:24:03;5.78;;;3.33;;
22579;SDS011;11456;47.030;15.396;2022-07-18T01:26:31;6.80;;;3.15;;
22579;SDS011;11456;47.030;15.396;2022-07-18T01:28:58;4.78;;;3.38;;
22579;SDS011;11456;47.030;15.396;2022-07-18T01:31:25;3.60;;;2.78;;
22579;SDS011;11456;47.030;15.396;2022-07-18T01:33:55;5.75;;;3.00;;
22579;SDS011;11456;47.030;15.396;2022-07-18T01:36:22;9.25;;;3.30;;
22579;SDS011;11456;47.030;15.396;2022-07-18T01:38:48;5.47;;;3.42;;
22579;SDS011;11456;47.030;15.396;2022-07-18T01:41:15;7.28;;;3.60;;
22579;SDS011;11456;47.030;15.396;2022-07-18T01:43:42;3.83;;;3.17;;
22579;SDS011;11456;47.030;15.396;2022-07-18T01:46:09;4.32;;;3.10;;
22579;SDS011;11456;47.030;15.396;2022-07-18T01:48:37;5.47;;;3.10;;
22579;SDS011;11456;47.030;15.396;2022-07-18T01:51:05;7.13;;;2.85;;
22579;SDS011;11456;47.030;15.396;2022-07-18T01:53:37;8.27;;;3.33;;
22579;SDS011;11456;47.030;15.396;2022-07-18T01:56:05;5.78;;;3.35;;
22579;SDS011;11456;47.030;15.396;2022-07-18T01:58:33;6.95;;;3.60;;
22579;SDS011;11456;47.030;15.396;2022-07-18T02:01:00;6.47;;;3.60;;
22579;SDS011;11456;47.030;15.396;2022-07-18T02:03:27;8.38;;;3.50;;
22579;SDS011;11456;47.030;15.396;2022-07-18T02:05:53;7.18;;;3.20;;
22579;SDS011;11456;47.030;15.396;2022-07-18T02:08:20;8.85;;;3.90;;
22579;SDS011;11456;47.030;15.396;2022-07-18T02:10:46;7.65;;;3.40;;
22579;SDS011;11456;47.030;15.396;2022-07-18T02:13:13;6.18;;;3.33;;
22579;SDS011;11456;47.030;15.396;2022-07-18T02:15:40;9.48;;;4.07;;
22579;SDS011;11456;47.030;15.396;2022-07-18T02:18:07;5.80;;;3.50;;
22579;SDS011;11456;47.030;15.396;2022-07-18T02:20:33;5.95;;;3.35;;
22579;SDS011;11456;47.030;15.396;2022-07-18T02:23:00;5.82;;;3.55;;
22579;SDS011;11456;47.030;15.396;2022-07-18T02:25:27;5.72;;;3.47;;
22579;SDS011;11456;47.030;15.396;2022-07-18T02:27:54;4.78;;;2.88;;
22579;SDS011;11456;47.030;15.396;2022-07-18T02:30:20;8.10;;;3.20;;
22579;SDS011;11456;47.030;15.396;2022-07-18T02:32:47;8.13;;;3.40;;
22579;SDS011;11456;47.030;15.396;2022-07-18T02:35:14;5.85;;;3.58;;
22579;SDS011;11456;47.030;15.396;2022-07-18T02:37:41;4.70;;;3.38;;
22579;SDS011;11456;47.030;15.396;2022-07-18T02:40:08;5.53;;;3.10;;
22579;SDS011;11456;47.030;15.396;2022-07-18T02:42:37;7.65;;;3.30;;
22579;SDS011;11456;47.030;15.396;2022-07-18T02:45:04;10.10;;;3.50;;
22579;SDS011;11456;47.030;15.396;2022-07-18T02:47:33;8.50;;;3.67;;
22579;SDS011;11456;47.030;15.396;2022-07-18T02:50:00;6.78;;;3.80;;
22579;SDS011;11456;47.030;15.396;2022-07-18T02:52:26;7.63;;;3.63;;
22579;SDS011;11456;47.030;15.396;2022-07-18T02:54:53;5.75;;;3.47;;
22579;SDS011;11456;47.030;15.396;2022-07-18T02:57:20;5.40;;;3.17;;
22579;SDS011;11456;47.030;15.396;2022-07-18T02:59:46;5.85;;;3.47;;
22579;SDS011;11456;47.030;15.396;2022-07-18T03:02:13;4.97;;;3.63;;
22579;SDS011;11456;47.030;15.396;2022-07-18T03:04:39;7.03;;;3.58;;
22579;SDS011;11456;47.030;15.396;2022-07-18T03:07:06;5.80;;;3.40;;
22579;SDS011;11456;47.030;15.396;2022-07-18T03:09:33;4.63;;;3.40;;
22579;SDS011;11456;47.030;15.396;2022-07-18T03:12:00;5.47;;;3.20;;
22579;SDS011;11456;47.030;15.396;2022-07-18T03:14:26;6.93;;;3.80;;
22579;SDS011;11456;47.030;15.396;2022-07-18T03:16:53;4.93;;;3.55;;
22579;SDS011;11456;47.030;15.396;2022-07-18T03:19:20;5.68;;;3.47;;
22579;SDS011;11456;47.030;15.396;2022-07-18T03:21:47;4.20;;;3.13;;
22579;SDS011;11456;47.030;15.396;2022-07-18T03:24:14;5.07;;;3.58;;
22579;SDS011;11456;47.030;15.396;2022-07-18T03:26:41;5.80;;;3.40;;
22579;SDS011;11456;47.030;15.396;2022-07-18T03:29:08;4.90;;;3.35;;
22579;SDS011;11456;47.030;15.396;2022-07-18T03:31:35;6.88;;;3.70;;
22579;SDS011;11456;47.030;15.396;2022-07-18T03:34:02;5.43;;;3.42;;
22579;SDS011;11456;47.030;15.396;2022-07-18T03:36:29;6.53;;;3.53;;
22579;SDS011;11456;47.030;15.396;2022-07-18T03:38:57;8.32;;;4.10;;
22579;SDS011;11456;47.030;15.396;2022-07-18T03:41:23;8.98;;;3.80;;
22579;SDS011;11456;47.030;15.396;2022-07-18T03:43:50;11.63;;;4.15;;
22579;SDS011;11456;47.030;15.396;2022-07-18T03:46:17;7.55;;;3.45;;
22579;SDS011;11456;47.030;15.396;2022-07-18T03:48:44;6.88;;;3.78;;
22579;SDS011;11456;47.030;15.396;2022-07-18T03:51:10;8.38;;;3.50;;
22579;SDS011;11456;47.030;15.396;2022-07-18T03:53:37;7.68;;;3.60;;
22579;SDS011;11456;47.030;15.396;2022-07-18T03:56:04;7.18;;;3.60;;
22579;SDS011;11456;47.030;15.396;2022-07-18T03:58:30;6.75;;;3.95;;
22579;SDS011;11456;47.030;15.396;2022-07-18T04:00:57;8.45;;;3.85;;
22579;SDS011;11456;47.030;15.396;2022-07-18T04:03:24;7.50;;;3.40;;
22579;SDS011;11456;47.030;15.396;2022-07-18T04:05:51;6.68;;;3.70;;
22579;SDS011;11456;47.030;15.396;2022-07-18T04:08:17;6.18;;;3.70;;
22579;SDS011;11456;47.030;15.396;2022-07-18T04:10:44;7.03;;;3.42;;
22579;SDS011;11456;47.030;15.396;2022-07-18T04:13:11;9.25;;;3.72;;
22579;SDS011;11456;47.030;15.396;2022-07-18T04:15:38;7.47;;;3.70;;
22579;SDS011;11456;47.030;15.396;2022-07-18T04:18:05;6.43;;;3.63;;
22579;SDS011;11456;47.030;15.396;2022-07-18T04:20:33;8.32;;;3.67;;
22579;SDS011;11456;47.030;15.396;2022-07-18T04:23:01;6.38;;;3.70;;
22579;SDS011;11456;47.030;15.396;2022-07-18T04:25:38;8.48;;;3.95;;
22579;SDS011;11456;47.030;15.396;2022-07-18T04:28:07;6.28;;;3.45;;
22579;SDS011;11456;47.030;15.396;2022-07-18T04:30:35;6.93;;;3.60;;
22579;SDS011;11456;47.030;15.396;2022-07-18T04:33:03;5.80;;;3.45;;
22579;SDS011;11456;47.030;15.396;2022-07-18T04:35:31;5.78;;;3.63;;
22579;SDS011;11456;47.030;15.396;2022-07-18T04:37:58;7.93;;;4.10;;
22579;SDS011;11456;47.030;15.396;2022-07-18T04:40:25;10.52;;;4.90;;
22579;SDS011;11456;47.030;15.396;2022-07-18T04:42:52;9.30;;;5.10;;
22579;SDS011;11456;47.030;15.396;2022-07-18T04:45:19;10.30;;;4.40;;
22579;SDS011;11456;47.030;15.396;2022-07-18T04:47:49;9.43;;;5.07;;
22579;SDS011;11456;47.030;15.396;2022-07-18T04:50:16;9.70;;;4.43;;
22579;SDS011;11456;47.030;15.396;2022-07-18T04:52:44;6.70;;;4.32;;
22579;SDS011;11456;47.030;15.396;2022-07-18T04:55:13;14.30;;;4.72;;
22579;SDS011;11456;47.030;15.396;2022-07-18T04:57:42;10.93;;;4.50;;
22579;SDS011;11456;47.030;15.396;2022-07-18T05:00:11;9.52;;;4.55;;
22579;SDS011;11456;47.030;15.396;2022-07-18T05:02:43;8.02;;;4.50;;
22579;SDS011;11456;47.030;15.396;2022-07-18T05:05:11;10.63;;;5.28;;
22579;SDS011;11456;47.030;15.396;2022-07-18T05:07:40;11.77;;;5.65;;
22579;SDS011;11456;47.030;15.396;2022-07-18T05:10:08;13.52;;;5.50;;
22579;SDS011;11456;47.030;15.396;2022-07-18T05:12:38;10.45;;;5.15;;
22579;SDS011;11456;47.030;15.396;2022-07-18T05:15:07;10.00;;;5.20;;
22579;SDS011;11456;47.030;15.396;2022-07-18T05:17:36;16.88;;;5.95;;
22579;SDS011;11456;47.030;15.396;2022-07-18T05:20:07;12.02;;;5.97;;
22579;SDS011;11456;47.030;15.396;2022-07-18T05:25:03;10.95;;;5.38;;
22579;SDS011;11456;47.030;15.396;2022-07-18T05:27:31;10.02;;;5.07;;
22579;SDS011;11456;47.030;15.396;2022-07-18T05:29:58;10.95;;;5.55;;
22579;SDS011;11456;47.030;15.396;2022-07-18T05:32:27;8.82;;;5.03;;
22579;SDS011;11456;47.030;15.396;2022-07-18T05:34:54;11.68;;;5.40;;
22579;SDS011;11456;47.030;15.396;2022-07-18T05:37:21;11.05;;;4.97;;
22579;SDS011;11456;47.030;15.396;2022-07-18T05:39:48;8.02;;;4.95;;
22579;SDS011;11456;47.030;15.396;2022-07-18T05:42:18;13.93;;;5.00;;
22579;SDS011;11456;47.030;15.396;2022-07-18T05:45:05;11.75;;;4.93;;
22579;SDS011;11456;47.030;15.396;2022-07-18T05:47:33;11.20;;;4.95;;
22579;SDS011;11456;47.030;15.396;2022-07-18T05:50:00;13.15;;;5.10;;
22579;SDS011;11456;47.030;15.396;2022-07-18T05:52:27;14.90;;;5.13;;
22579;SDS011;11456;47.030;15.396;2022-07-18T05:54:54;15.48;;;5.20;;
22579;SDS011;11456;47.030;15.396;2022-07-18T05:57:20;14.15;;;5.03;;
22579;SDS011;11456;47.030;15.396;2022-07-18T05:59:47;11.18;;;5.18;;
22579;SDS011;11456;47.030;15.396;2022-07-18T06:02:14;9.38;;;4.88;;
22579;SDS011;11456;47.030;15.396;2022-07-18T06:04:41;13.15;;;5.28;;
22579;SDS011;11456;47.030;15.396;2022-07-18T06:07:27;11.48;;;5.18;;
22579;SDS011;11456;47.030;15.396;2022-07-18T06:09:54;12.95;;;5.18;;
22579;SDS011;11456;47.030;15.396;2022-07-18T06:12:21;10.93;;;4.70;;
22579;SDS011;11456;47.030;15.396;2022-07-18T06:14:48;10.32;;;4.50;;
22579;SDS011;11456;47.030;15.396;2022-07-18T06:17:15;10.73;;;4.80;;
22579;SDS011;11456;47.030;15.396;2022-07-18T06:19:41;12.35;;;4.45;;
22579;SDS011;11456;47.030;15.396;2022-07-18T06:22:08;12.23;;;4.93;;
22579;SDS011;11456;47.030;15.396;2022-07-18T06:24:35;16.95;;;5.28;;
22579;SDS011;11456;47.030;15.396;2022-07-18T06:27:02;21.52;;;5.05;;
22579;SDS011;11456;47.030;15.396;2022-07-18T06:29:29;10.52;;;4.53;;
22579;SDS011;11456;47.030;15.396;2022-07-18T06:31:55;8.02;;;4.68;;
22579;SDS011;11456;47.030;15.396;2022-07-18T06:34:22;12.48;;;4.78;;
22579;SDS011;11456;47.030;15.396;2022-07-18T06:36:49;6.65;;;3.65;;
22579;SDS011;11456;47.030;15.396;2022-07-18T06:39:15;10.55;;;3.92;;
22579;SDS011;11456;47.030;15.396;2022-07-18T06:41:45;9.48;;;4.18;;
22579;SDS011;11456;47.030;15.396;2022-07-18T06:44:12;11.05;;;3.78;;
22579;SDS011;11456;47.030;15.396;2022-07-18T06:46:40;9.90;;;3.40;;
22579;SDS011;11456;47.030;15.396;2022-07-18T06:49:07;9.88;;;3.60;;
22579;SDS011;11456;47.030;15.396;2022-07-18T06:51:34;5.43;;;3.00;;
22579;SDS011;11456;47.030;15.396;2022-07-18T06:54:01;8.65;;;3.60;;
22579;SDS011;11456;47.030;15.396;2022-07-18T06:56:27;7.50;;;3.00;;
22579;SDS011;11456;47.030;15.396;2022-07-18T06:58:54;25.65;;;3.75;;
22579;SDS011;11456;47.030;15.396;2022-07-18T07:01:21;9.68;;;2.90;;
22579;SDS011;11456;47.030;15.396;2022-07-18T07:03:48;6.60;;;3.28;;
22579;SDS011;11456;47.030;15.396;2022-07-18T07:06:14;8.77;;;3.03;;
22579;SDS011;11456;47.030;15.396;2022-07-18T07:08:42;5.72;;;2.78;;
22579;SDS011;11456;47.030;15.396;2022-07-18T07:11:10;10.15;;;2.90;;
22579;SDS011;11456;47.030;15.396;2022-07-18T07:13:37;5.25;;;2.85;;
22579;SDS011;11456;47.030;15.396;2022-07-18T07:16:04;7.50;;;2.40;;
22579;SDS011;11456;47.030;15.396;2022-07-18T07:18:30;8.98;;;2.80;;
22579;SDS011;11456;47.030;15.396;2022-07-18T07:20:58;8.35;;;2.70;;
22579;SDS011;11456;47.030;15.396;2022-07-18T07:23:25;4.63;;;2.50;;
22579;SDS011;11456;47.030;15.396;2022-07-18T07:25:52;7.80;;;2.70;;
22579;SDS011;11456;47.030;15.396;2022-07-18T07:28:19;6.68;;;2.50;;
22579;SDS011;11456;47.030;15.396;2022-07-18T07:30:45;8.20;;;2.78;;
22579;SDS011;11456;47.030;15.396;2022-07-18T07:33:12;7.63;;;2.70;;
22579;SDS011;11456;47.030;15.396;2022-07-18T07:35:39;11.98;;;2.95;;
22579;SDS011;11456;47.030;15.396;2022-07-18T07:38:06;10.13;;;2.55;;
22579;SDS011;11456;47.030;15.396;2022-07-18T07:40:32;11.13;;;2.88;;
22579;SDS011;11456;47.030;15.396;2022-07-18T07:43:06;8.65;;;2.45;;
22579;SDS011;11456;47.030;15.396;2022-07-18T07:45:35;7.25;;;2.38;;
22579;SDS011;11456;47.030;15.396;2022-07-18T07:48:02;6.70;;;2.72;;
22579;SDS011;11456;47.030;15.396;2022-07-18T07:50:29;9.20;;;2.50;;
22579;SDS011;11456;47.030;15.396;2022-07-18T07:52:56;13.60;;;3.10;;
22579;SDS011;11456;47.030;15.396;2022-07-18T07:55:23;12.70;;;2.95;;
22579;SDS011;11456;47.030;15.396;2022-07-18T07:57:51;11.40;;;2.78;;
22579;SDS011;11456;47.030;15.396;2022-07-18T08:00:18;7.35;;;2.60;;
22579;SDS011;11456;47.030;15.396;2022-07-18T08:02:58;12.27;;;2.97;;
22579;SDS011;11456;47.030;15.396;2022-07-18T08:05:28;11.07;;;2.58;;
22579;SDS011;11456;47.030;15.396;2022-07-18T08:07:56;8.25;;;2.55;;
22579;SDS011;11456;47.030;15.396;2022-07-18T08:10:24;5.30;;;1.98;;
22579;SDS011;11456;47.030;15.396;2022-07-18T08:12:52;7.18;;;2.28;;
22579;SDS011;11456;47.030;15.396;2022-07-18T08:15:19;6.15;;;2.70;;
22579;SDS011;11456;47.030;15.396;2022-07-18T08:17:46;6.53;;;2.45;;
22579;SDS011;11456;47.030;15.396;2022-07-18T08:20:13;11.90;;;2.15;;
22579;SDS011;11456;47.030;15.396;2022-07-18T08:22:56;11.43;;;3.05;;
22579;SDS011;11456;47.030;15.396;2022-07-18T08:25:27;15.10;;;2.80;;
22579;SDS011;11456;47.030;15.396;2022-07-18T08:27:55;9.90;;;2.60;;
22579;SDS011;11456;47.030;15.396;2022-07-18T08:30:22;15.38;;;3.00;;
22579;SDS011;11456;47.030;15.396;2022-07-18T08:32:49;8.80;;;2.30;;
22579;SDS011;11456;47.030;15.396;2022-07-18T08:35:16;14.68;;;2.80;;
22579;SDS011;11456;47.030;15.396;2022-07-18T08:37:43;17.13;;;2.55;;
22579;SDS011;11456;47.030;15.396;2022-07-18T08:40:10;11.95;;;2.67;;
22579;SDS011;11456;47.030;15.396;2022-07-18T08:42:38;11.38;;;2.40;;
22579;SDS011;11456;47.030;15.396;2022-07-18T08:45:26;10.68;;;2.22;;
22579;SDS011;11456;47.030;15.396;2022-07-18T08:47:52;11.27;;;2.97;;
22579;SDS011;11456;47.030;15.396;2022-07-18T08:50:19;5.72;;;2.17;;
22579;SDS011;11456;47.030;15.396;2022-07-18T08:52:46;4.32;;;2.28;;
22579;SDS011;11456;47.030;15.396;2022-07-18T08:55:20;8.38;;;2.00;;
22579;SDS011;11456;47.030;15.396;2022-07-18T08:57:51;8.07;;;2.50;;
22579;SDS011;11456;47.030;15.396;2022-07-18T09:00:19;4.28;;;2.20;;
22579;SDS011;11456;47.030;15.396;2022-07-18T09:02:57;11.82;;;1.98;;
22579;SDS011;11456;47.030;15.396;2022-07-18T09:05:26;7.45;;;2.10;;
22579;SDS011;11456;47.030;15.396;2022-07-18T09:08:12;7.75;;;2.05;;
22579;SDS011;11456;47.030;15.396;2022-07-18T09:10:50;6.68;;;1.98;;
22579;SDS011;11456;47.030;15.396;2022-07-18T09:13:22;14.32;;;2.20;;
22579;SDS011;11456;47.030;15.396;2022-07-18T09:16:01;11.88;;;2.42;;
22579;SDS011;11456;47.030;15.396;2022-07-18T09:18:34;14.30;;;2.50;;
22579;SDS011;11456;47.030;15.396;2022-07-18T09:21:20;13.32;;;2.05;;
22579;SDS011;11456;47.030;15.396;2022-07-18T09:23:49;18.15;;;2.13;;
22579;SDS011;11456;47.030;15.396;2022-07-18T09:29:08;12.65;;;2.00;;
22579;SDS011;11456;47.030;15.396;2022-07-18T09:31:52;10.07;;;1.83;;
22579;SDS011;11456;47.030;15.396;2022-07-18T09:34:37;8.52;;;2.15;;
22579;SDS011;11456;47.030;15.396;2022-07-18T09:37:12;5.38;;;2.03;;
22579;SDS011;11456;47.030;15.396;2022-07-18T09:39:39;4.35;;;1.83;;
22579;SDS011;11456;47.030;15.396;2022-07-18T09:42:16;2.22;;;1.83;;
22579;SDS011;11456;47.030;15.396;2022-07-18T09:44:56;6.85;;;2.03;;
22579;SDS011;11456;47.030;15.396;2022-07-18T09:47:25;4.03;;;1.90;;
22579;SDS011;11456;47.030;15.396;2022-07-18T09:49:51;4.65;;;1.92;;
22579;SDS011;11456;47.030;15.396;2022-07-18T09:52:19;9.38;;;2.00;;
22579;SDS011;11456;47.030;15.396;2022-07-18T09:54:45;9.60;;;2.08;;
22579;SDS011;11456;47.030;15.396;2022-07-18T09:57:25;6.28;;;1.95;;
22579;SDS011;11456;47.030;15.396;2022-07-18T09:59:53;8.80;;;2.25;;
22579;SDS011;11456;47.030;15.396;2022-07-18T10:02:21;3.80;;;1.95;;
22579;SDS011;11456;47.030;15.396;2022-07-18T10:04:48;10.02;;;2.30;;
22579;SDS011;11456;47.030;15.396;2022-07-18T10:07:15;4.60;;;1.70;;
22579;SDS011;11456;47.030;15.396;2022-07-18T10:09:42;4.30;;;2.05;;
22579;SDS011;11456;47.030;15.396;2022-07-18T10:12:13;4.03;;;1.98;;
22579;SDS011;11456;47.030;15.396;2022-07-18T10:14:41;5.18;;;2.00;;
22579;SDS011;11456;47.030;15.396;2022-07-18T10:17:10;8.07;;;1.83;;
22579;SDS011;11456;47.030;15.396;2022-07-18T10:19:36;3.58;;;1.80;;
22579;SDS011;11456;47.030;15.396;2022-07-18T10:22:03;5.68;;;2.22;;
22579;SDS011;11456;47.030;15.396;2022-07-18T10:24:33;5.05;;;2.15;;
22579;SDS011;11456;47.030;15.396;2022-07-18T10:27:11;5.97;;;1.67;;
22579;SDS011;11456;47.030;15.396;2022-07-18T10:32:38;4.82;;;1.83;;
22579;SDS011;11456;47.030;15.396;2022-07-18T10:35:06;6.10;;;1.95;;
22579;SDS011;11456;47.030;15.396;2022-07-18T10:37:34;13.70;;;1.90;;
22579;SDS011;11456;47.030;15.396;2022-07-18T10:43:35;10.82;;;2.15;;
22579;SDS011;11456;47.030;15.396;2022-07-18T10:45:53;5.68;;;2.20;;
22579;SDS011;11456;47.030;15.396;2022-07-18T10:50:59;4.22;;;1.88;;
22579;SDS011;11456;47.030;15.396;2022-07-18T10:58:57;8.88;;;2.05;;
22579;SDS011;11456;47.030;15.396;2022-07-18T11:01:25;5.90;;;1.87;;
22579;SDS011;11456;47.030;15.396;2022-07-18T11:09:28;3.45;;;1.52;;
22579;SDS011;11456;47.030;15.396;2022-07-18T11:12:43;5.60;;;1.80;;
22579;SDS011;11456;47.030;15.396;2022-07-18T11:20:29;7.22;;;1.92;;
22579;SDS011;11456;47.030;15.396;2022-07-18T11:25:58;4.60;;;1.88;;
22579;SDS011;11456;47.030;15.396;2022-07-18T11:28:27;4.68;;;1.80;;
22579;SDS011;11456;47.030;15.396;2022-07-18T11:30:58;3.33;;;1.75;;
22579;SDS011;11456;47.030;15.396;2022-07-18T11:33:32;2.60;;;1.60;;
22579;SDS011;11456;47.030;15.396;2022-07-18T11:36:07;5.20;;;1.70;;
22579;SDS011;11456;47.030;15.396;2022-07-18T11:38:37;4.35;;;1.70;;
22579;SDS011;11456;47.030;15.396;2022-07-18T11:41:12;5.13;;;1.77;;
22579;SDS011;11456;47.030;15.396;2022-07-18T11:43:40;6.97;;;1.73;;
22579;SDS011;11456;47.030;15.396;2022-07-18T11:46:08;10.13;;;1.90;;
22579;SDS011;11456;47.030;15.396;2022-07-18T11:48:42;8.80;;;1.73;;
22579;SDS011;11456;47.030;15.396;2022-07-18T11:51:15;3.30;;;1.80;;
22579;SDS011;11456;47.030;15.396;2022-07-18T11:53:50;8.10;;;1.67;;
22579;SDS011;11456;47.030;15.396;2022-07-18T11:56:19;4.43;;;1.80;;
22579;SDS011;11456;47.030;15.396;2022-07-18T11:58:48;7.53;;;1.90;;
22579;SDS011;11456;47.030;15.396;2022-07-18T12:01:16;8.25;;;1.80;;
22579;SDS011;11456;47.030;15.396;2022-07-18T12:03:44;9.82;;;2.22;;
22579;SDS011;11456;47.030;15.396;2022-07-18T12:06:16;13.07;;;1.80;;
22579;SDS011;11456;47.030;15.396;2022-07-18T12:08:46;9.82;;;1.70;;
22579;SDS011;11456;47.030;15.396;2022-07-18T12:11:15;7.20;;;1.70;;
22579;SDS011;11456;47.030;15.396;2022-07-18T12:13:54;10.35;;;1.80;;
22579;SDS011;11456;47.030;15.396;2022-07-18T12:19:02;6.38;;;1.70;;
22579;SDS011;11456;47.030;15.396;2022-07-18T12:21:48;4.78;;;1.95;;
22579;SDS011;11456;47.030;15.396;2022-07-18T12:24:31;8.10;;;1.73;;
22579;SDS011;11456;47.030;15.396;2022-07-18T12:27:13;6.93;;;1.90;;
22579;SDS011;11456;47.030;15.396;2022-07-18T12:32:36;6.63;;;1.80;;
22579;SDS011;11456;47.030;15.396;2022-07-18T12:35:23;6.78;;;1.75;;
22579;SDS011;11456;47.030;15.396;2022-07-18T12:37:54;8.88;;;1.50;;
22579;SDS011;11456;47.030;15.396;2022-07-18T12:40:25;3.15;;;1.88;;
22579;SDS011;11456;47.030;15.396;2022-07-18T12:43:09;6.20;;;1.60;;
22579;SDS011;11456;47.030;15.396;2022-07-18T12:45:37;4.93;;;1.80;;
22579;SDS011;11456;47.030;15.396;2022-07-18T12:48:05;11.90;;;1.95;;
22579;SDS011;11456;47.030;15.396;2022-07-18T12:50:33;3.80;;;1.80;;
22579;SDS011;11456;47.030;15.396;2022-07-18T12:53:01;3.83;;;1.63;;
22579;SDS011;11456;47.030;15.396;2022-07-18T12:55:28;3.13;;;1.42;;
22579;SDS011;11456;47.030;15.396;2022-07-18T12:57:58;7.40;;;1.70;;
22579;SDS011;11456;47.030;15.396;2022-07-18T13:00:26;9.43;;;1.70;;
22579;SDS011;11456;47.030;15.396;2022-07-18T13:02:54;7.78;;;1.73;;
22579;SDS011;11456;47.030;15.396;2022-07-18T13:05:23;3.88;;;1.80;;
22579;SDS011;11456;47.030;15.396;2022-07-18T13:07:50;8.15;;;1.77;;
22579;SDS011;11456;47.030;15.396;2022-07-18T13:10:17;3.20;;;1.70;;
22579;SDS011;11456;47.030;15.396;2022-07-18T13:12:44;4.85;;;1.70;;
22579;SDS011;11456;47.030;15.396;2022-07-18T13:15:10;2.65;;;1.55;;
22579;SDS011;11456;47.030;15.396;2022-07-18T13:17:37;3.08;;;1.63;;
22579;SDS011;11456;47.030;15.396;2022-07-18T13:20:04;8.85;;;1.90;;
22579;SDS011;11456;47.030;15.396;2022-07-18T13:22:32;5.53;;;1.70;;
22579;SDS011;11456;47.030;15.396;2022-07-18T13:27:35;8.52;;;2.17;;
22579;SDS011;11456;47.030;15.396;2022-07-18T13:30:03;14.60;;;2.67;;
22579;SDS011;11456;47.030;15.396;2022-07-18T13:32:31;3.00;;;1.85;;
22579;SDS011;11456;47.030;15.396;2022-07-18T13:34:58;8.23;;;1.60;;
22579;SDS011;11456;47.030;15.396;2022-07-18T13:37:25;8.13;;;1.85;;
22579;SDS011;11456;47.030;15.396;2022-07-18T13:39:52;5.72;;;1.75;;
22579;SDS011;11456;47.030;15.396;2022-07-18T13:42:19;3.03;;;1.80;;
22579;SDS011;11456;47.030;15.396;2022-07-18T13:44:45;2.97;;;1.70;;
22579;SDS011;11456;47.030;15.396;2022-07-18T13:47:13;5.75;;;1.65;;
22579;SDS011;11456;47.030;15.396;2022-07-18T13:49:41;11.00;;;1.80;;
22579;SDS011;11456;47.030;15.396;2022-07-18T13:52:08;9.15;;;1.88;;
22579;SDS011;11456;47.030;15.396;2022-07-18T13:54:36;2.63;;;1.50;;
22579;SDS011;11456;47.030;15.396;2022-07-18T13:57:04;11.43;;;1.80;;
22579;SDS011;11456;47.030;15.396;2022-07-18T13:59:31;4.90;;;1.80;;
22579;SDS011;11456;47.030;15.396;2022-07-18T14:01:58;3.60;;;1.50;;
22579;SDS011;11456;47.030;15.396;2022-07-18T14:04:25;6.15;;;1.67;;
22579;SDS011;11456;47.030;15.396;2022-07-18T14:07:04;5.43;;;1.88;;
22579;SDS011;11456;47.030;15.396;2022-07-18T14:09:32;4.13;;;1.50;;
22579;SDS011;11456;47.030;15.396;2022-07-18T14:11:59;4.18;;;1.65;;
22579;SDS011;11456;47.030;15.396;2022-07-18T14:14:26;11.68;;;1.85;;
22579;SDS011;11456;47.030;15.396;2022-07-18T14:16:52;3.97;;;1.60;;
22579;SDS011;11456;47.030;15.396;2022-07-18T14:19:20;4.43;;;1.60;;
22579;SDS011;11456;47.030;15.396;2022-07-18T14:21:47;3.60;;;1.65;;
22579;SDS011;11456;47.030;15.396;2022-07-18T14:24:14;4.97;;;1.67;;
22579;SDS011;11456;47.030;15.396;2022-07-18T14:26:40;3.88;;;1.90;;
22579;SDS011;11456;47.030;15.396;2022-07-18T14:29:07;5.80;;;1.60;;
22579;SDS011;11456;47.030;15.396;2022-07-18T14:31:34;2.08;;;1.88;;
22579;SDS011;11456;47.030;15.396;2022-07-18T14:34:01;5.18;;;1.45;;
22579;SDS011;11456;47.030;15.396;2022-07-18T14:36:28;4.90;;;1.90;;
22579;SDS011;11456;47.030;15.396;2022-07-18T14:38:57;4.78;;;1.60;;
22579;SDS011;11456;47.030;15.396;2022-07-18T14:41:23;2.90;;;1.50;;
22579;SDS011;11456;47.030;15.396;2022-07-18T14:43:50;3.15;;;1.60;;
22579;SDS011;11456;47.030;15.396;2022-07-18T14:46:17;3.72;;;1.70;;
22579;SDS011;11456;47.030;15.396;2022-07-18T14:48:43;3.13;;;1.40;;
22579;SDS011;11456;47.030;15.396;2022-07-18T14:51:10;4.07;;;1.50;;
22579;SDS011;11456;47.030;15.396;2022-07-18T14:53:37;4.40;;;1.58;;
22579;SDS011;11456;47.030;15.396;2022-07-18T14:56:03;2.95;;;1.50;;
22579;SDS011;11456;47.030;15.396;2022-07-18T14:58:30;2.97;;;1.58;;
22579;SDS011;11456;47.030;15.396;2022-07-18T15:00:57;2.25;;;1.45;;
22579;SDS011;11456;47.030;15.396;2022-07-18T15:03:23;6.05;;;1.38;;
22579;SDS011;11456;47.030;15.396;2022-07-18T15:06:10;4.57;;;1.65;;
22579;SDS011;11456;47.030;15.396;2022-07-18T15:08:38;5.85;;;1.40;;
22579;SDS011;11456;47.030;15.396;2022-07-18T15:11:05;4.32;;;1.50;;
22579;SDS011;11456;47.030;15.396;2022-07-18T15:13:31;2.83;;;1.70;;
22579;SDS011;11456;47.030;15.396;2022-07-18T15:15:58;2.33;;;1.55;;
22579;SDS011;11456;47.030;15.396;2022-07-18T15:18:25;3.63;;;1.48;;
22579;SDS011;11456;47.030;15.396;2022-07-18T15:20:52;6.55;;;1.83;;
22579;SDS011;11456;47.030;15.396;2022-07-18T15:23:18;5.32;;;1.70;;